Time;durP1;ratioP1;P1;durP2;ratioP2;P2;SDS_P1;SDS_P2;PMS_P1;PMS_P2;Temp;Humidity;BMP_temperature;BMP_pressure;BME280_temperature;BME280_humidity;BME280_pressure;Samples;Min_cycle;Max_cycle;Signal;HPM_P1;HPM_P2
2023/12/10 00:01:41;;;;;;;7.90;2.23;;;;;;;6.65;100.00;99143.38;4893585;29;20224;-75
2023/12/10 00:04:08;;;;;;;13.80;2.90;;;;;;;6.48;100.00;99145.84;4891886;29;20220;-72
2023/12/10 00:06:35;;;;;;;9.93;2.37;;;;;;;6.42;100.00;99155.44;4893571;29;20211;-71
2023/12/10 00:09:02;;;;;;;12.83;3.60;;;;;;;6.46;100.00;99162.47;4889584;29;20675;-71
2023/12/10 00:11:28;;;;;;;9.40;2.30;;;;;;;6.55;100.00;99154.69;4890212;29;20243;-71
2023/12/10 00:13:55;;;;;;;9.87;2.17;;;;;;;6.64;100.00;99149.50;4890250;29;21228;-71
2023/12/10 00:16:21;;;;;;;12.03;2.70;;;;;;;6.54;100.00;99145.91;4885446;29;20669;-68
2023/12/10 00:18:48;;;;;;;10.27;1.73;;;;;;;6.65;100.00;99145.13;4892539;29;20211;-73
2023/12/10 00:21:14;;;;;;;15.10;2.43;;;;;;;6.65;100.00;99158.28;4888195;29;20225;-72
2023/12/10 00:23:41;;;;;;;8.47;2.07;;;;;;;6.67;100.00;99149.53;4888749;29;20220;-68
2023/12/10 00:26:07;;;;;;;12.30;3.10;;;;;;;6.73;100.00;99153.94;4889591;29;20215;-71
2023/12/10 00:28:34;;;;;;;13.67;2.50;;;;;;;6.70;100.00;99167.97;4892139;29;20273;-74
2023/12/10 00:31:00;;;;;;;12.03;2.77;;;;;;;6.72;100.00;99179.38;4892725;29;20968;-71
2023/12/10 00:33:27;;;;;;;11.70;2.70;;;;;;;6.67;100.00;99178.47;4887882;29;20211;-71
2023/12/10 00:35:53;;;;;;;8.53;2.07;;;;;;;6.74;100.00;99190.78;4894669;29;20207;-71
2023/12/10 00:38:20;;;;;;;10.07;2.47;;;;;;;6.72;100.00;99197.78;4893842;29;20297;-71
2023/12/10 00:40:47;;;;;;;13.93;2.43;;;;;;;6.67;100.00;99215.28;4890243;29;20371;-71
2023/12/10 00:43:14;;;;;;;13.40;2.13;;;;;;;6.59;100.00;99209.97;4888797;29;20205;-73
2023/12/10 00:45:40;;;;;;;16.33;2.47;;;;;;;6.68;100.00;99224.06;4888881;29;20233;-72
2023/12/10 00:48:07;;;;;;;17.07;2.67;;;;;;;6.59;100.00;99223.09;4893869;29;20268;-70
2023/12/10 00:50:34;;;;;;;11.47;2.13;;;;;;;6.68;100.00;99235.47;4890002;29;20232;-70
2023/12/10 00:53:03;;;;;;;12.80;2.60;;;;;;;6.71;100.00;99245.13;4891769;29;21962;-70
2023/12/10 00:55:30;;;;;;;9.13;2.17;;;;;;;6.89;100.00;99242.72;4886391;29;20211;-70
2023/12/10 00:57:56;;;;;;;13.50;2.23;;;;;;;6.85;100.00;99249.69;4892693;29;20319;-71
2023/12/10 01:00:23;;;;;;;8.90;2.47;;;;;;;6.86;100.00;99253.22;4894392;29;20618;-71
2023/12/10 01:02:49;;;;;;;12.13;2.87;;;;;;;6.80;100.00;99261.00;4888445;29;20780;-70
2023/12/10 01:05:16;;;;;;;9.00;2.43;;;;;;;6.78;100.00;99261.00;4892692;29;20619;-70
2023/12/10 01:07:42;;;;;;;10.63;2.47;;;;;;;6.79;100.00;99264.50;4890560;29;20663;-69
2023/12/10 01:10:09;;;;;;;14.87;3.00;;;;;;;6.85;100.00;99268.13;4896147;29;20220;-69
2023/12/10 01:12:37;;;;;;;11.23;2.53;;;;;;;6.79;100.00;99278.53;4892907;29;20204;-72
2023/12/10 01:15:05;;;;;;;10.60;2.40;;;;;;;6.75;100.00;99281.13;4891277;29;20196;-71
2023/12/10 01:17:31;;;;;;;12.10;2.50;;;;;;;6.83;100.00;99276.88;4894386;29;20244;-72
2023/12/10 01:20:03;;;;;;;11.27;2.30;;;;;;;6.93;100.00;99286.59;4891563;29;20286;-68
2023/12/10 01:22:30;;;;;;;13.93;2.90;;;;;;;6.96;100.00;99289.25;4911306;29;20238;-70
2023/12/10 01:24:58;;;;;;;17.80;2.40;;;;;;;6.96;100.00;99286.63;4889718;29;20220;-70
2023/12/10 01:27:24;;;;;;;19.97;3.03;;;;;;;7.07;100.00;99299.91;4894801;29;20231;-70
2023/12/10 01:29:51;;;;;;;7.90;2.37;;;;;;;6.94;100.00;99293.63;4896104;29;20212;-70
2023/12/10 01:32:20;;;;;;;11.67;2.90;;;;;;;6.91;100.00;99307.66;4891218;29;20702;-70
2023/12/10 01:34:47;;;;;;;16.40;2.50;;;;;;;6.88;100.00;99312.88;4892639;29;20227;-70
2023/12/10 01:37:13;;;;;;;18.00;3.23;;;;;;;6.82;100.00;99319.84;4894150;29;20208;-69
2023/12/10 01:39:40;;;;;;;10.60;3.03;;;;;;;6.83;100.00;99319.84;4895775;29;20205;-71
2023/12/10 01:42:08;;;;;;;18.37;2.47;;;;;;;6.74;100.00;99321.47;4909647;29;20298;-70
2023/12/10 01:44:34;;;;;;;15.13;2.93;;;;;;;6.78;100.00;99328.53;4892556;29;20223;-71
2023/12/10 01:47:02;;;;;;;23.27;2.33;;;;;;;6.84;100.00;99332.13;4894375;29;20252;-73
2023/12/10 01:49:28;;;;;;;16.03;2.37;;;;;;;6.81;100.00;99334.75;4895365;29;20652;-71
2023/12/10 01:51:55;;;;;;;14.90;2.57;;;;;;;6.81;100.00;99334.75;4894521;29;20224;-69
2023/12/10 01:54:24;;;;;;;15.80;2.80;;;;;;;6.81;100.00;99336.47;4893095;29;20206;-72
2023/12/10 01:56:50;;;;;;;13.77;3.37;;;;;;;6.75;100.00;99339.00;4892153;29;20215;-70
2023/12/10 01:59:31;;;;;;;12.20;3.13;;;;;;;6.75;100.00;99318.84;4888419;29;20208;-71
2023/12/10 02:01:58;;;;;;;8.20;2.30;;;;;;;6.78;100.00;99354.84;4894633;29;20620;-71
2023/12/10 02:04:24;;;;;;;17.87;3.23;;;;;;;7.20;100.00;99352.72;4902050;29;20232;-71
2023/12/10 02:06:51;;;;;;;13.87;2.73;;;;;;;7.45;100.00;99366.09;4895006;29;20204;-71
2023/12/10 02:09:18;;;;;;;16.00;3.30;;;;;;;7.48;100.00;99353.84;4891561;29;20232;-70
2023/12/10 02:11:45;;;;;;;14.77;2.60;;;;;;;7.36;100.00;99356.34;4909858;29;20224;-71
2023/12/10 02:14:11;;;;;;;19.73;2.50;;;;;;;7.44;100.00;99357.31;4892893;29;20204;-71
2023/12/10 02:16:38;;;;;;;13.33;2.40;;;;;;;7.50;100.00;99369.66;4888558;29;20291;-71
2023/12/10 02:19:04;;;;;;;7.47;1.60;;;;;;;7.46;100.00;99352.06;4890476;29;20587;-73
2023/12/10 02:21:32;;;;;;;10.33;2.23;;;;;;;7.26;100.00;99375.59;4893008;29;20234;-73
2023/12/10 02:24:04;;;;;;;7.30;1.53;;;;;;;7.07;100.00;99371.84;4891560;29;20223;-72
2023/12/10 02:26:31;;;;;;;11.63;2.23;;;;;;;7.05;100.00;99373.59;4891217;29;20669;-71
2023/12/10 02:28:58;;;;;;;8.33;2.23;;;;;;;6.80;100.00;99380.31;4892755;29;20204;-71
2023/12/10 02:31:25;;;;;;;8.80;1.83;;;;;;;6.67;100.00;99388.03;4891665;29;20514;-70
2023/12/10 02:33:52;;;;;;;6.73;1.97;;;;;;;6.53;100.00;99391.38;4892360;29;20203;-70
2023/12/10 02:36:18;;;;;;;10.47;2.37;;;;;;;6.28;100.00;99395.41;4894394;29;20281;-70
2023/12/10 02:38:48;;;;;;;11.70;2.40;;;;;;;6.23;100.00;99402.34;4894144;29;20205;-73
2023/12/10 02:41:15;;;;;;;10.07;2.23;;;;;;;6.10;100.00;99402.16;4894046;29;20251;-71
2023/12/10 02:43:41;;;;;;;11.73;2.57;;;;;;;6.03;100.00;99413.44;4892822;29;20204;-72
2023/12/10 02:46:08;;;;;;;12.53;2.53;;;;;;;5.92;100.00;99418.50;4889917;29;20246;-71
2023/12/10 02:48:34;;;;;;;12.20;2.37;;;;;;;5.83;100.00;99415.69;4893246;29;20200;-71
2023/12/10 02:51:01;;;;;;;11.90;2.20;;;;;;;5.82;100.00;99424.44;4893425;29;20451;-71
2023/12/10 02:53:27;;;;;;;13.03;2.50;;;;;;;5.64;100.00;99428.53;4891744;29;20303;-71
2023/12/10 02:55:54;;;;;;;8.13;2.30;;;;;;;5.66;100.00;99441.69;4886402;29;20199;-71
2023/12/10 02:58:20;;;;;;;12.47;2.93;;;;;;;5.48;100.00;99442.22;4891340;29;20685;-72
2023/12/10 03:00:46;;;;;;;10.50;2.17;;;;;;;5.33;100.00;99449.81;4895152;29;20308;-71
2023/12/10 03:03:13;;;;;;;9.43;2.33;;;;;;;5.47;100.00;99448.31;4893278;29;20458;-71
2023/12/10 03:05:40;;;;;;;12.40;2.50;;;;;;;5.34;100.00;99444.59;4887535;29;20215;-71
2023/12/10 03:08:06;;;;;;;8.00;2.13;;;;;;;5.33;100.00;99455.06;4894589;29;20283;-71
2023/12/10 03:10:33;;;;;;;11.17;2.47;;;;;;;5.18;100.00;99454.75;4890297;29;20318;-71
2023/12/10 03:12:59;;;;;;;13.73;3.10;;;;;;;5.22;100.00;99465.38;4894327;29;20574;-71
2023/12/10 03:15:25;;;;;;;12.80;2.17;;;;;;;5.20;100.00;99458.28;4889020;29;20212;-74
2023/12/10 03:17:52;;;;;;;12.63;3.30;;;;;;;5.17;100.00;99468.72;4890973;29;20201;-72
2023/12/10 03:20:19;;;;;;;10.30;3.00;;;;;;;5.39;100.00;99470.94;4894927;29;20967;-71
2023/12/10 03:22:45;;;;;;;7.17;1.80;;;;;;;5.38;100.00;99476.16;4894398;29;20660;-70
2023/12/10 03:25:11;;;;;;;15.60;2.80;;;;;;;5.37;100.00;99469.13;4891131;29;20230;-70
2023/12/10 03:27:38;;;;;;;15.70;2.27;;;;;;;5.53;100.00;99481.69;4894186;29;20203;-72
2023/12/10 03:30:05;;;;;;;15.80;2.30;;;;;;;5.74;100.00;99475.97;4907752;29;20229;-70
2023/12/10 03:32:31;;;;;;;17.97;2.33;;;;;;;5.95;100.00;99478.97;4894406;29;20698;-70
2023/12/10 03:34:58;;;;;;;8.60;1.30;;;;;;;6.03;100.00;99468.63;4890874;29;20384;-71
2023/12/10 03:37:24;;;;;;;10.80;2.20;;;;;;;6.27;100.00;99471.63;4894187;29;20211;-72
2023/12/10 03:39:51;;;;;;;13.20;2.47;;;;;;;6.36;100.00;99474.41;4891213;29;20211;-71
2023/12/10 03:42:17;;;;;;;6.03;1.90;;;;;;;6.54;100.00;99464.16;4908952;29;20205;-70
2023/12/10 03:44:44;;;;;;;15.13;2.03;;;;;;;6.68;100.00;99459.09;4891794;29;20275;-71
2023/12/10 03:47:10;;;;;;;18.47;2.50;;;;;;;7.01;100.00;99473.56;4891651;29;20798;-70
2023/12/10 03:49:37;;;;;;;11.60;2.23;;;;;;;7.18;100.00;99488.69;4885793;29;20715;-71
2023/12/10 03:52:04;;;;;;;9.10;1.90;;;;;;;7.33;100.00;99485.38;4887113;29;20776;-70
2023/12/10 03:54:30;;;;;;;11.57;2.27;;;;;;;7.47;100.00;99482.91;4892346;29;20570;-70
2023/12/10 03:56:57;;;;;;;6.90;1.73;;;;;;;7.32;100.00;99470.44;4892432;29;20625;-71
2023/12/10 03:59:23;;;;;;;10.67;1.80;;;;;;;7.43;100.00;99495.16;4893419;29;20215;-73
2023/12/10 04:01:50;;;;;;;8.80;2.07;;;;;;;7.44;100.00;99496.91;4894557;29;20224;-70
2023/12/10 04:04:16;;;;;;;8.03;1.70;;;;;;;7.51;100.00;99497.88;4892064;29;20231;-70
2023/12/10 04:06:42;;;;;;;8.00;1.77;;;;;;;7.52;100.00;99511.06;4893113;29;20219;-70
2023/12/10 04:09:09;;;;;;;12.17;2.53;;;;;;;7.44;100.00;99518.00;4891231;29;20204;-70
2023/12/10 04:11:36;;;;;;;5.13;1.47;;;;;;;7.31;100.00;99524.00;4887598;29;20225;-71
2023/12/10 04:14:06;;;;;;;10.10;1.63;;;;;;;7.31;100.00;99537.16;4889213;29;20201;-70
2023/12/10 04:16:33;;;;;;;8.87;1.93;;;;;;;7.29;100.00;99532.75;4888458;29;20824;-70
2023/12/10 04:18:59;;;;;;;12.80;2.17;;;;;;;7.35;100.00;99536.31;4891861;29;20204;-70
2023/12/10 04:21:26;;;;;;;10.00;1.43;;;;;;;7.27;100.00;99523.94;4893108;29;20224;-69
2023/12/10 04:23:52;;;;;;;6.77;1.67;;;;;;;7.19;100.00;99535.22;4889329;29;20249;-71
2023/12/10 04:26:19;;;;;;;8.40;1.63;;;;;;;7.05;100.00;99530.66;4890122;29;20229;-70
2023/12/10 04:28:45;;;;;;;8.23;1.57;;;;;;;7.00;100.00;99543.75;4890976;29;20230;-70
2023/12/10 04:31:12;;;;;;;12.47;2.27;;;;;;;7.02;100.00;99551.69;4891867;29;20224;-70
2023/12/10 04:33:39;;;;;;;8.20;2.17;;;;;;;6.97;100.00;99556.88;4886893;29;20229;-72
2023/12/10 04:36:06;;;;;;;8.67;1.63;;;;;;;7.05;100.00;99547.34;4893617;29;20205;-70
2023/12/10 04:38:32;;;;;;;8.83;1.77;;;;;;;7.09;100.00;99548.25;4892359;29;20204;-70
2023/12/10 04:40:59;;;;;;;11.37;3.10;;;;;;;7.16;100.00;99558.88;4894103;29;20229;-70
2023/12/10 04:43:25;;;;;;;13.57;2.10;;;;;;;7.19;100.00;99547.50;4895910;29;20216;-70
2023/12/10 04:45:52;;;;;;;6.47;1.83;;;;;;;7.24;100.00;99551.13;4888821;29;20228;-73
2023/12/10 04:48:18;;;;;;;12.20;2.33;;;;;;;7.38;100.00;99546.00;4896253;29;20198;-70
2023/12/10 04:50:45;;;;;;;5.27;1.67;;;;;;;7.42;100.00;99547.81;4894393;29;20712;-69
2023/12/10 04:53:11;;;;;;;12.40;1.80;;;;;;;7.46;100.00;99558.41;4896862;29;20202;-72
2023/12/10 04:55:38;;;;;;;13.97;1.97;;;;;;;7.45;100.00;99574.19;4895644;29;20196;-72
2023/12/10 04:58:04;;;;;;;12.17;1.60;;;;;;;7.36;100.00;99559.16;4897054;29;20204;-72
2023/12/10 05:00:30;;;;;;;9.77;1.93;;;;;;;7.36;100.00;99576.72;4895778;29;20224;-70
2023/12/10 05:02:57;;;;;;;10.17;2.10;;;;;;;7.37;100.00;99576.75;4892188;29;20207;-70
2023/12/10 05:05:24;;;;;;;5.93;2.00;;;;;;;7.27;100.00;99572.22;4893460;29;20226;-69
2023/12/10 05:07:50;;;;;;;5.90;1.50;;;;;;;7.32;100.00;99582.81;4895462;29;20736;-70
2023/12/10 05:10:16;;;;;;;11.53;1.77;;;;;;;7.35;100.00;99582.84;4892495;29;20228;-70
2023/12/10 05:12:43;;;;;;;12.13;1.83;;;;;;;7.41;100.00;99578.53;4892191;29;20636;-70
2023/12/10 05:15:09;;;;;;;5.73;1.97;;;;;;;7.51;100.00;99583.06;4893777;29;20201;-70
2023/12/10 05:17:36;;;;;;;13.07;2.27;;;;;;;7.52;100.00;99578.66;4895871;29;20204;-70
2023/12/10 05:20:05;;;;;;;12.60;1.83;;;;;;;7.59;100.00;99591.03;4893183;29;20293;-72
2023/12/10 05:22:31;;;;;;;7.57;2.30;;;;;;;7.63;100.00;99579.72;4888604;29;20200;-70
2023/12/10 05:24:58;;;;;;;12.47;1.80;;;;;;;7.63;100.00;99579.72;4892698;29;20231;-70
2023/12/10 05:27:25;;;;;;;7.17;1.83;;;;;;;7.62;100.00;99579.69;4891995;29;20689;-70
2023/12/10 05:29:52;;;;;;;7.90;2.10;;;;;;;7.64;100.00;99591.13;4895134;29;20284;-69
2023/12/10 05:32:18;;;;;;;6.17;2.03;;;;;;;7.64;100.00;99599.91;4908798;29;20695;-71
2023/12/10 05:34:44;;;;;;;9.23;2.03;;;;;;;7.64;100.00;99605.19;4895152;29;20940;-70
2023/12/10 05:37:11;;;;;;;6.67;1.60;;;;;;;7.53;100.00;99586.59;4895786;29;20239;-69
2023/12/10 05:39:37;;;;;;;8.80;2.23;;;;;;;7.56;100.00;99601.56;4895064;29;20209;-70
2023/12/10 05:42:04;;;;;;;14.33;2.27;;;;;;;7.59;100.00;99611.25;5005968;23;20301;-68
2023/12/10 05:44:31;;;;;;;8.80;2.17;;;;;;;7.62;100.00;99616.59;4960829;28;20300;-68
2023/12/10 05:46:57;;;;;;;7.63;1.67;;;;;;;7.55;100.00;99616.47;4963397;28;20213;-70
2023/12/10 05:49:24;;;;;;;8.47;1.90;;;;;;;7.47;100.00;99612.88;4968519;28;20687;-68
2023/12/10 05:51:50;;;;;;;5.13;2.00;;;;;;;7.36;100.00;99611.84;4974000;28;20232;-68
2023/12/10 05:54:17;;;;;;;10.57;1.73;;;;;;;7.45;100.00;99614.59;4974557;28;20205;-68
2023/12/10 05:56:44;;;;;;;12.90;2.10;;;;;;;7.39;100.00;99613.63;4980651;28;20207;-71
2023/12/10 05:59:10;;;;;;;12.63;2.30;;;;;;;7.42;100.00;99634.75;4977356;28;20567;-68
2023/12/10 06:01:37;;;;;;;15.63;2.30;;;;;;;7.46;100.00;99618.13;4976584;28;20225;-68
2023/12/10 06:04:03;;;;;;;8.13;1.67;;;;;;;7.61;100.00;99628.00;4975666;28;20236;-69
2023/12/10 06:06:30;;;;;;;12.30;2.10;;;;;;;7.71;100.00;99636.03;4985520;28;20217;-68
2023/12/10 06:08:56;;;;;;;9.10;2.00;;;;;;;7.72;100.00;99626.38;4978429;28;20207;-68
2023/12/10 06:11:23;;;;;;;12.43;2.47;;;;;;;7.82;100.00;99636.16;4975243;28;20725;-68
2023/12/10 06:13:49;;;;;;;8.60;2.13;;;;;;;7.77;100.00;99643.13;4982419;28;20206;-68
2023/12/10 06:16:16;;;;;;;9.50;1.93;;;;;;;7.79;100.00;99647.53;4980257;28;20682;-68
2023/12/10 06:18:42;;;;;;;7.93;2.43;;;;;;;7.77;100.00;99640.47;4978789;28;20205;-69
2023/12/10 06:21:08;;;;;;;12.03;2.70;;;;;;;7.77;100.00;99644.00;4977817;28;20247;-70
2023/12/10 06:23:35;;;;;;;5.87;1.67;;;;;;;7.77;100.00;99658.94;4973642;28;20237;-68
2023/12/10 06:26:01;;;;;;;12.77;2.23;;;;;;;7.78;100.00;99661.59;4979756;28;20219;-68
2023/12/10 06:28:28;;;;;;;7.27;1.90;;;;;;;7.76;100.00;99665.94;4985200;28;20212;-70
2023/12/10 06:30:55;;;;;;;8.47;2.23;;;;;;;7.75;100.00;99668.56;4974668;28;20608;-68
2023/12/10 06:33:21;;;;;;;10.53;2.20;;;;;;;7.77;100.00;99667.72;4990661;28;20577;-68
2023/12/10 06:35:48;;;;;;;6.67;2.30;;;;;;;7.69;100.00;99676.41;4969649;28;20660;-68
2023/12/10 06:38:15;;;;;;;13.77;2.00;;;;;;;7.60;100.00;99682.41;4982952;28;20211;-69
2023/12/10 06:40:41;;;;;;;9.77;2.10;;;;;;;7.55;100.00;99677.06;4982887;28;20227;-68
2023/12/10 06:43:07;;;;;;;18.50;1.90;;;;;;;7.49;100.00;99684.00;4981434;28;20208;-68
2023/12/10 06:45:34;;;;;;;7.53;2.80;;;;;;;7.46;100.00;99687.50;4981975;28;20256;-69
2023/12/10 06:48:00;;;;;;;10.77;2.33;;;;;;;7.47;100.00;99694.53;4974978;28;20201;-68
2023/12/10 06:50:27;;;;;;;13.03;2.73;;;;;;;7.50;100.00;99696.31;4975079;28;20647;-68
2023/12/10 06:52:53;;;;;;;9.00;2.00;;;;;;;7.51;100.00;99706.00;4982714;28;20213;-68
2023/12/10 06:55:20;;;;;;;10.90;1.97;;;;;;;7.46;100.00;99700.66;4971788;28;20202;-68
2023/12/10 06:57:46;;;;;;;5.67;1.90;;;;;;;7.53;100.00;99707.78;4972796;28;20206;-68
2023/12/10 07:00:14;;;;;;;15.60;2.33;;;;;;;7.55;100.00;99707.81;4979431;28;20201;-69
2023/12/10 07:02:40;;;;;;;15.97;2.20;;;;;;;7.55;100.00;99713.06;4972814;28;20217;-68
2023/12/10 07:05:07;;;;;;;13.30;2.00;;;;;;;7.52;100.00;99719.19;4969876;28;20208;-70
2023/12/10 07:07:33;;;;;;;12.00;2.00;;;;;;;7.48;100.00;99727.03;4974478;28;20207;-68
2023/12/10 07:10:00;;;;;;;10.43;2.40;;;;;;;7.46;100.00;99734.03;4977400;28;20214;-68
2023/12/10 07:12:26;;;;;;;9.00;1.53;;;;;;;7.47;100.00;99748.97;4989264;28;20266;-68
2023/12/10 07:14:53;;;;;;;10.87;1.83;;;;;;;7.51;100.00;99750.78;4976807;28;20626;-68
2023/12/10 07:17:19;;;;;;;12.97;2.67;;;;;;;7.61;100.00;99755.34;4986017;28;20663;-68
2023/12/10 07:19:46;;;;;;;14.33;2.33;;;;;;;7.66;100.00;99765.97;4975945;28;20210;-68
2023/12/10 07:22:13;;;;;;;14.23;1.80;;;;;;;7.68;100.00;99762.47;4976850;28;20225;-68
2023/12/10 07:24:39;;;;;;;7.17;1.83;;;;;;;7.67;100.00;99771.25;4975322;28;20296;-68
2023/12/10 07:27:06;;;;;;;9.80;1.90;;;;;;;7.73;100.00;99770.44;4973789;28;20314;-68
2023/12/10 07:29:32;;;;;;;7.40;1.90;;;;;;;7.74;100.00;99772.22;4974730;28;20227;-69
2023/12/10 07:31:59;;;;;;;11.07;2.33;;;;;;;7.79;100.00;99758.25;4983500;28;20227;-68
2023/12/10 07:34:25;;;;;;;7.90;1.57;;;;;;;7.79;100.00;99758.25;4976914;28;20304;-67
2023/12/10 07:36:52;;;;;;;8.47;1.90;;;;;;;7.89;100.00;99756.63;4984171;28;20203;-68
2023/12/10 07:39:18;;;;;;;9.00;2.10;;;;;;;7.90;100.00;99761.03;4980247;28;20236;-68
2023/12/10 07:41:45;;;;;;;9.07;1.77;;;;;;;7.97;100.00;99757.59;4987828;28;20265;-68
2023/12/10 07:44:12;;;;;;;10.00;1.97;;;;;;;8.02;100.00;99766.50;4979552;28;20310;-69
2023/12/10 07:46:38;;;;;;;9.93;1.93;;;;;;;8.04;100.00;99764.75;4984335;28;20224;-68
2023/12/10 07:49:04;;;;;;;9.67;1.60;;;;;;;8.07;100.00;99783.25;4975021;28;20211;-68
2023/12/10 07:51:31;;;;;;;11.70;2.00;;;;;;;8.13;100.00;99778.06;4984524;28;20224;-68
2023/12/10 07:53:57;;;;;;;9.70;1.83;;;;;;;8.23;100.00;99773.78;4980581;28;20322;-69
2023/12/10 07:56:24;;;;;;;8.67;1.83;;;;;;;8.19;100.00;99777.25;4976562;28;20291;-68
2023/12/10 07:58:50;;;;;;;7.63;1.50;;;;;;;8.14;100.00;99771.03;4974077;28;20213;-68
2023/12/10 08:01:17;;;;;;;7.23;1.80;;;;;;;8.06;100.00;99785.88;4973586;28;20265;-68
2023/12/10 08:03:44;;;;;;;6.97;2.07;;;;;;;7.96;100.00;99782.19;4983047;28;20289;-70
2023/12/10 08:06:10;;;;;;;11.30;1.60;;;;;;;7.97;100.00;99791.88;4980775;28;20271;-70
2023/12/10 08:08:37;;;;;;;9.07;1.67;;;;;;;8.01;100.00;99796.34;4983448;28;20212;-68
2023/12/10 08:11:05;;;;;;;5.20;1.70;;;;;;;8.12;100.00;99799.13;4981926;28;20707;-67
2023/12/10 08:13:32;;;;;;;7.83;1.60;;;;;;;8.11;100.00;99789.44;4973370;28;20315;-66
2023/12/10 08:15:58;;;;;;;7.97;1.70;;;;;;;8.23;100.00;99794.00;4973999;28;20200;-69
2023/12/10 08:18:25;;;;;;;9.27;1.87;;;;;;;8.39;100.00;99788.94;4977409;28;20219;-69
2023/12/10 08:20:51;;;;;;;8.20;1.60;;;;;;;8.40;100.00;99805.66;4974463;28;20715;-68
2023/12/10 08:23:18;;;;;;;12.23;1.80;;;;;;;8.49;100.00;99789.97;4984841;28;20236;-68
2023/12/10 08:25:44;;;;;;;8.13;1.87;;;;;;;8.56;100.00;99793.56;4991084;28;20206;-68
2023/12/10 08:28:11;;;;;;;9.13;1.83;;;;;;;8.66;100.00;99798.97;4979982;28;20664;-68
2023/12/10 08:30:37;;;;;;;8.27;1.87;;;;;;;8.78;100.00;99808.75;4983522;28;20312;-69
2023/12/10 08:33:04;;;;;;;11.50;2.40;;;;;;;8.88;100.00;99815.06;4981837;28;20202;-68
2023/12/10 08:35:32;;;;;;;6.50;1.67;;;;;;;8.99;100.00;99822.22;4970899;28;20228;-70
2023/12/10 08:37:58;;;;;;;9.70;1.90;;;;;;;9.05;100.00;99826.69;4975355;28;20211;-68
2023/12/10 08:40:24;;;;;;;6.10;1.70;;;;;;;9.09;100.00;99841.69;4975151;28;20310;-68
2023/12/10 08:42:51;;;;;;;7.00;2.20;;;;;;;9.10;100.00;99833.78;4985744;28;20206;-68
2023/12/10 08:45:17;;;;;;;8.37;1.70;;;;;;;9.22;100.00;99846.25;4977822;28;20197;-68
2023/12/10 08:47:44;;;;;;;8.70;1.90;;;;;;;9.25;100.00;99838.34;4974436;28;20231;-66
2023/12/10 08:50:12;;;;;;;14.23;1.97;;;;;;;9.25;100.00;99837.47;4978857;28;20205;-68
2023/12/10 08:52:39;;;;;;;7.97;1.70;;;;;;;9.20;100.00;99832.09;4981441;28;20214;-69
2023/12/10 08:55:06;;;;;;;8.30;2.03;;;;;;;9.21;100.00;99831.25;4975084;28;20204;-68
2023/12/10 08:57:32;;;;;;;7.13;1.63;;;;;;;9.25;100.00;99838.34;4982687;28;20726;-68
2023/12/10 09:00:00;;;;;;;4.80;1.50;;;;;;;9.29;100.00;99833.97;4974779;28;20213;-70
2023/12/10 09:02:28;;;;;;;10.60;2.00;;;;;;;9.33;100.00;99841.94;4984609;28;20223;-68
2023/12/10 09:04:55;;;;;;;10.13;2.47;;;;;;;9.37;100.00;99843.75;4974705;28;20214;-69
2023/12/10 09:07:25;;;;;;;7.07;1.57;;;;;;;9.38;100.00;99844.63;4980908;28;20707;-68
2023/12/10 09:09:52;;;;;;;8.90;1.60;;;;;;;9.40;100.00;99854.34;4979100;28;20207;-68
2023/12/10 09:12:31;;;;;;;5.03;1.47;;;;;;;9.42;100.00;99849.94;4973772;28;20343;-68
2023/12/10 09:14:58;;;;;;;9.80;1.90;;;;;;;9.48;100.00;99872.00;4976770;28;20213;-68
2023/12/10 09:17:25;;;;;;;6.17;1.50;;;;;;;9.52;100.00;99860.59;4983856;28;20209;-68
2023/12/10 09:19:52;;;;;;;5.23;1.60;;;;;;;9.59;100.00;99868.59;4979332;28;20276;-70
2023/12/10 09:22:18;;;;;;;11.23;1.60;;;;;;;9.62;100.00;99871.28;4977290;28;20275;-70
2023/12/10 09:24:44;;;;;;;12.33;1.97;;;;;;;9.80;100.00;99878.47;4976418;28;20219;-67
2023/12/10 09:27:11;;;;;;;6.70;2.23;;;;;;;9.90;100.00;99872.38;4980598;28;20255;-68
2023/12/10 09:29:42;;;;;;;7.57;1.60;;;;;;;9.99;100.00;99890.06;4987914;28;20250;-68
2023/12/10 09:32:08;;;;;;;7.43;1.57;;;;;;;9.96;100.00;99888.28;4974797;28;20330;-68
2023/12/10 09:34:35;;;;;;;5.90;1.83;;;;;;;10.04;100.00;99894.56;4978827;28;20203;-68
2023/12/10 09:37:02;;;;;;;8.43;1.90;;;;;;;10.12;100.00;99893.72;4984736;28;20212;-69
2023/12/10 09:39:29;;;;;;;6.80;1.80;;;;;;;10.14;100.00;99906.09;4977899;28;20211;-69
2023/12/10 09:41:55;;;;;;;7.43;1.77;;;;;;;10.25;100.00;99907.06;4977655;28;20256;-68
2023/12/10 09:44:22;;;;;;;8.20;2.00;;;;;;;10.17;100.00;99897.28;4977063;28;20479;-68
2023/12/10 09:46:48;;;;;;;6.47;1.30;;;;;;;10.11;100.00;99914.00;4979743;28;20248;-67
2023/12/10 09:49:15;;;;;;;5.77;1.47;;;;;;;10.05;100.00;99914.84;4975339;28;20208;-67
2023/12/10 09:51:42;;;;;;;6.07;1.63;;;;;;;10.09;100.00;99896.34;4999666;28;20551;-68
2023/12/10 09:54:08;;;;;;;7.33;1.73;;;;;;;10.22;100.00;99908.81;4979580;28;20244;-69
2023/12/10 09:56:35;;;;;;;4.33;1.40;;;;;;;10.34;100.00;99914.19;4986166;28;20306;-69
2023/12/10 09:59:01;;;;;;;5.47;1.40;;;;;;;10.30;100.00;99896.50;4982878;28;20209;-68
2023/12/10 10:01:28;;;;;;;11.57;2.00;;;;;;;10.24;100.00;99912.34;4984615;28;20232;-68
2023/12/10 10:03:55;;;;;;;9.00;1.17;;;;;;;10.23;100.00;99907.94;4997249;28;20287;-68
2023/12/10 10:06:22;;;;;;;8.00;1.37;;;;;;;10.34;100.00;99909.78;4975393;28;20225;-67
2023/12/10 10:08:48;;;;;;;9.77;1.40;;;;;;;10.42;100.00;99901.03;4982047;28;20217;-71
2023/12/10 10:11:16;;;;;;;10.10;1.80;;;;;;;10.53;100.00;99896.66;4997132;28;20779;-68
2023/12/10 10:13:53;;;;;;;7.17;1.83;;;;;;;10.75;100.00;99892.34;4974798;28;20205;-68
2023/12/10 10:16:20;;;;;;;7.97;1.73;;;;;;;10.91;100.00;99883.59;4976261;28;20587;-68
2023/12/10 10:18:49;;;;;;;8.27;1.67;;;;;;;11.15;100.00;99883.66;4996945;28;20284;-68
2023/12/10 10:21:16;;;;;;;6.20;1.53;;;;;;;11.29;100.00;99887.25;4985592;28;20221;-68
2023/12/10 10:23:43;;;;;;;9.87;1.70;;;;;;;11.23;100.00;99881.94;4975424;28;20214;-70
2023/12/10 10:26:11;;;;;;;5.07;1.70;;;;;;;11.25;100.00;99874.88;4975638;28;20609;-69
2023/12/10 10:28:37;;;;;;;8.93;1.70;;;;;;;11.26;100.00;99873.13;4972260;28;20211;-69
2023/12/10 10:31:04;;;;;;;9.67;1.70;;;;;;;11.25;100.00;99866.03;4975827;28;20240;-68
2023/12/10 10:33:31;;;;;;;11.03;1.70;;;;;;;11.17;100.00;99876.59;4970461;28;20557;-68
2023/12/10 10:35:59;;;;;;;9.23;1.77;;;;;;;11.21;100.00;99872.22;4969276;28;20203;-70
2023/12/10 10:38:27;;;;;;;7.40;1.70;;;;;;;11.22;100.00;99866.94;4985427;28;20683;-69
2023/12/10 10:40:56;;;;;;;3.37;1.23;;;;;;;11.22;100.00;99892.56;4970922;28;20226;-69
2023/12/10 10:43:23;;;;;;;8.80;2.00;;;;;;;11.15;100.00;99880.13;4970609;28;20216;-67
2023/12/10 10:45:50;;;;;;;7.83;1.60;;;;;;;11.13;100.00;99885.44;4967996;28;20199;-70
2023/12/10 10:48:17;;;;;;;10.17;1.77;;;;;;;11.17;100.00;99876.59;4972316;28;20298;-67
2023/12/10 10:50:44;;;;;;;8.50;1.70;;;;;;;11.23;100.00;99878.41;4987216;28;20323;-70
2023/12/10 10:53:12;;;;;;;7.87;1.67;;;;;;;11.30;100.00;99893.44;4971064;28;20562;-68
2023/12/10 10:55:39;;;;;;;7.63;1.90;;;;;;;11.42;100.00;99884.63;4968186;28;20315;-68
2023/12/10 10:58:24;;;;;;;6.17;1.80;;;;;;;11.41;100.00;99890.81;4972421;28;20206;-68
2023/12/10 11:00:51;;;;;;;6.77;1.70;;;;;;;11.51;100.00;99892.59;4970152;28;20227;-68
2023/12/10 11:03:18;;;;;;;9.50;1.47;;;;;;;11.49;100.00;99907.63;4970602;28;20212;-70
2023/12/10 11:05:45;;;;;;;7.17;2.40;;;;;;;11.43;100.00;99891.69;4967823;28;20212;-68
2023/12/10 11:08:12;;;;;;;8.50;2.00;;;;;;;11.26;100.00;99894.31;4973439;28;20220;-68
2023/12/10 11:10:44;;;;;;;14.30;3.00;;;;;;;11.24;100.00;99885.47;4970635;28;20243;-68
2023/12/10 11:13:11;;;;;;;10.00;2.40;;;;;;;11.16;100.00;99882.78;4970672;28;20294;-68
2023/12/10 11:15:37;;;;;;;8.80;1.67;;;;;;;11.22;100.00;99881.94;4967989;28;20423;-68
2023/12/10 11:18:05;;;;;;;12.67;1.70;;;;;;;11.21;100.00;99896.09;4976903;28;20322;-70
2023/12/10 11:20:40;;;;;;;9.57;2.20;;;;;;;11.21;100.00;99896.09;4978080;28;20502;-71
2023/12/10 11:23:09;;;;;;;5.03;1.60;;;;;;;11.20;100.00;99894.28;4996401;28;20239;-68
2023/12/10 11:25:36;;;;;;;6.33;1.97;;;;;;;11.14;100.00;99889.84;4969879;28;20221;-69
2023/12/10 11:28:14;;;;;;;7.70;1.80;;;;;;;11.12;100.00;99881.00;4978284;28;20320;-68